Time;durP1;ratioP1;P1;durP2;ratioP2;P2;SDS_P1;SDS_P2;PMS_P1;PMS_P2;Temp;Humidity;BMP_temperature;BMP_pressure;BME280_temperature;BME280_humidity;BME280_pressure;Samples;Min_cycle;Max_cycle;Signal;HPM_P1;HPM_P2
2023/01/17 00:01:53;;;;;;;1.35;0.70;;;;;;;3.12;100.00;97245.22;5980943;29;20109;-69
2023/01/17 00:11:16;;;;;;;1.95;0.90;;;;;;;2.76;100.00;97231.31;5982042;29;20035;-70
2023/01/17 00:14:12;;;;;;;1.40;0.63;;;;;;;2.88;100.00;97251.56;5980352;29;20035;-69
2023/01/17 00:17:07;;;;;;;1.20;0.57;;;;;;;2.86;100.00;97250.13;5981748;29;20043;-69
2023/01/17 00:26:32;;;;;;;1.35;0.63;;;;;;;2.85;100.00;97246.72;5981321;29;20028;-71
2023/01/17 01:35:54;;;;;;;4.03;1.75;;;;;;;2.99;100.00;97284.31;5980304;29;20366;-71
2023/01/17 01:38:49;;;;;;;2.85;1.65;;;;;;;2.95;100.00;97283.06;5979793;29;20119;-71
2023/01/17 01:41:44;;;;;;;5.20;1.80;;;;;;;3.05;100.00;97299.28;5979280;29;20475;-70
2023/01/17 01:44:51;;;;;;;3.37;1.40;;;;;;;2.92;100.00;97273.78;5979270;28;20034;-71
2023/01/17 01:47:48;;;;;;;3.00;1.80;;;;;;;2.90;100.00;97278.41;5979465;29;20556;-70
2023/01/17 01:50:43;;;;;;;3.35;1.60;;;;;;;3.02;100.00;97307.50;5979557;28;20109;-71
2023/01/17 01:53:42;;;;;;;3.50;1.63;;;;;;;3.01;100.00;97303.28;5961972;29;20039;-70
2023/01/17 01:56:38;;;;;;;3.63;1.80;;;;;;;3.00;100.00;97305.06;5962050;29;20039;-71
2023/01/17 01:59:34;;;;;;;5.45;2.80;;;;;;;2.97;100.00;97296.78;5979063;29;20035;-71
2023/01/17 02:02:30;;;;;;;5.97;3.17;;;;;;;2.96;100.00;97301.19;5978524;29;20089;-71
2023/01/17 02:05:26;;;;;;;7.00;3.17;;;;;;;2.98;100.00;97303.63;5979629;29;20027;-71
2023/01/17 02:08:22;;;;;;;7.90;4.05;;;;;;;2.97;100.00;97312.47;5961846;29;20043;-70
2023/01/17 02:11:18;;;;;;;7.47;3.55;;;;;;;3.03;100.00;97322.22;5978829;29;20062;-72
2023/01/17 02:14:15;;;;;;;7.83;3.50;;;;;;;3.00;100.00;97331.25;5978087;29;20051;-71
2023/01/17 02:17:34;;;;;;;9.40;4.38;;;;;;;3.04;100.00;97343.97;5978742;29;20035;-70
2023/01/17 02:20:48;;;;;;;8.48;3.55;;;;;;;2.98;100.00;97324.56;5979369;29;20034;-71
2023/01/17 02:24:05;;;;;;;6.35;3.00;;;;;;;3.02;100.00;97336.28;5960907;29;20035;-71
2023/01/17 02:27:09;;;;;;;6.80;3.40;;;;;;;3.05;100.00;97343.78;5978918;29;20039;-71
2023/01/17 02:30:31;;;;;;;5.85;3.00;;;;;;;3.02;100.00;97340.72;5961452;29;20038;-71
2023/01/17 02:33:30;;;;;;;6.55;3.35;;;;;;;3.08;100.00;97351.28;5978599;29;20046;-74
2023/01/17 02:36:30;;;;;;;5.65;2.70;;;;;;;3.03;100.00;97355.41;5978839;29;20062;-71
2023/01/17 02:39:35;;;;;;;6.88;2.72;;;;;;;2.95;100.00;97340.63;5978189;29;20035;-72
2023/01/17 02:42:36;;;;;;;6.93;3.22;;;;;;;3.03;100.00;97368.50;5978169;29;20039;-72
2023/01/17 02:45:31;;;;;;;5.03;2.50;;;;;;;2.96;100.00;97371.06;5961290;29;20038;-73
2023/01/17 02:48:29;;;;;;;7.43;3.37;;;;;;;2.91;100.00;97379.41;5978746;29;20538;-71
2023/01/17 02:51:40;;;;;;;8.50;3.65;;;;;;;2.85;100.00;97366.25;5961544;29;20062;-71
2023/01/17 02:54:47;;;;;;;7.65;3.10;;;;;;;2.86;100.00;97380.94;5978255;29;20344;-71
2023/01/17 02:58:15;;;;;;;4.78;2.50;;;;;;;2.83;100.00;97394.38;5977809;29;20475;-70
2023/01/17 03:01:34;;;;;;;6.43;2.40;;;;;;;2.57;100.00;97365.22;5926040;28;20055;-72
2023/01/17 03:04:53;;;;;;;5.97;2.55;;;;;;;2.71;100.00;97401.06;5982800;29;20494;-71
2023/01/17 03:07:49;;;;;;;7.63;2.92;;;;;;;2.64;100.00;97389.66;5965791;29;20070;-71
2023/01/17 03:10:45;;;;;;;5.90;2.80;;;;;;;2.62;100.00;97391.66;5965721;29;20047;-71
2023/01/17 03:13:41;;;;;;;6.22;2.95;;;;;;;2.68;100.00;97415.31;5964975;29;20081;-71
2023/01/17 03:16:36;;;;;;;5.25;2.40;;;;;;;2.57;100.00;97400.03;5982902;29;20035;-70
2023/01/17 03:19:31;;;;;;;5.30;2.60;;;;;;;2.54;100.00;97420.50;5982460;29;20039;-71
2023/01/17 03:22:26;;;;;;;7.30;2.87;;;;;;;2.56;100.00;97415.91;5982353;29;20027;-72
2023/01/17 03:25:22;;;;;;;8.43;3.20;;;;;;;2.36;100.00;97392.84;5982585;29;20031;-70
2023/01/17 03:28:17;;;;;;;5.70;2.50;;;;;;;2.61;100.00;97431.91;5982368;29;20394;-70
2023/01/17 03:31:14;;;;;;;5.73;2.67;;;;;;;2.60;100.00;97438.94;5982760;29;20062;-74
2023/01/17 03:34:09;;;;;;;5.38;2.45;;;;;;;2.55;100.00;97437.81;5981473;29;20106;-73
2023/01/17 03:37:05;;;;;;;6.32;2.70;;;;;;;2.64;100.00;97452.44;5982902;29;20038;-71
2023/01/17 03:40:00;;;;;;;4.63;2.40;;;;;;;2.66;100.00;97448.69;5982111;29;20067;-69
2023/01/17 03:42:55;;;;;;;6.33;2.60;;;;;;;2.64;100.00;97441.97;5981384;29;20043;-69
2023/01/17 03:45:53;;;;;;;4.33;2.23;;;;;;;2.60;100.00;97436.31;5982383;28;20031;-70
2023/01/17 03:48:48;;;;;;;5.30;2.35;;;;;;;2.65;100.00;97454.91;5981860;29;20487;-74
2023/01/17 03:51:44;;;;;;;5.00;1.95;;;;;;;2.73;100.00;97462.66;5980768;29;20118;-74
2023/01/17 03:54:39;;;;;;;3.70;2.20;;;;;;;2.76;100.00;97466.72;5981671;29;20046;-73
2023/01/17 03:57:34;;;;;;;4.18;1.83;;;;;;;2.68;100.00;97464.19;5981354;29;20042;-73
2023/01/17 04:00:30;;;;;;;6.00;2.23;;;;;;;2.76;100.00;97477.19;5982086;29;20380;-72
2023/01/17 04:03:25;;;;;;;4.17;1.80;;;;;;;2.79;100.00;97476.84;5981064;29;20074;-74
2023/01/17 04:06:21;;;;;;;5.00;2.13;;;;;;;2.71;100.00;97459.44;5982018;29;20533;-73
2023/01/17 04:09:16;;;;;;;3.63;1.80;;;;;;;2.79;100.00;97476.84;5981186;29;20039;-71
2023/01/17 04:12:11;;;;;;;4.75;2.08;;;;;;;2.80;100.00;97488.94;5981110;29;20039;-71
2023/01/17 04:15:07;;;;;;;3.40;1.60;;;;;;;2.79;100.00;97474.22;5980478;28;20039;-72
2023/01/17 04:18:03;;;;;;;4.97;2.60;;;;;;;2.76;100.00;97467.56;5981474;29;20039;-71
2023/01/17 04:20:59;;;;;;;4.35;2.17;;;;;;;2.75;100.00;97467.72;5981971;29;20271;-73
2023/01/17 04:23:54;;;;;;;5.23;2.70;;;;;;;2.84;100.00;97490.22;5980692;29;20042;-71
2023/01/17 04:26:49;;;;;;;4.70;2.23;;;;;;;2.72;100.00;97470.69;5980706;29;20043;-73
2023/01/17 04:29:45;;;;;;;4.60;2.27;;;;;;;2.78;100.00;97502.19;5980947;29;20046;-72
2023/01/17 04:32:40;;;;;;;4.50;2.13;;;;;;;2.68;100.00;97496.41;5980373;29;20045;-70
2023/01/17 04:35:35;;;;;;;4.23;2.00;;;;;;;2.72;100.00;97505.50;5980893;29;20039;-71
2023/01/17 04:38:30;;;;;;;4.07;1.83;;;;;;;2.73;100.00;97514.16;5981194;29;20441;-70
2023/01/17 04:41:26;;;;;;;5.17;2.37;;;;;;;2.65;100.00;97511.63;5981268;29;20116;-70
2023/01/17 04:44:21;;;;;;;4.73;2.30;;;;;;;2.61;100.00;97515.59;5980444;28;20023;-72
2023/01/17 04:47:16;;;;;;;5.40;2.30;;;;;;;2.54;100.00;97507.63;5980593;29;20566;-71
2023/01/17 04:50:12;;;;;;;6.27;2.27;;;;;;;2.66;100.00;97521.09;5981050;29;20039;-72
2023/01/17 04:53:07;;;;;;;4.40;2.30;;;;;;;2.70;100.00;97527.59;5980102;29;20043;-72
2023/01/17 04:56:03;;;;;;;5.33;2.60;;;;;;;2.67;100.00;97512.25;5980666;29;20066;-71
2023/01/17 04:58:58;;;;;;;6.30;2.30;;;;;;;2.77;100.00;97520.69;5980513;29;20267;-69
2023/01/17 05:01:54;;;;;;;11.87;2.60;;;;;;;2.72;100.00;97504.69;5980033;29;20057;-73
2023/01/17 05:04:49;;;;;;;6.13;2.50;;;;;;;2.83;100.00;97525.19;5980707;29;20023;-72
2023/01/17 05:07:52;;;;;;;10.27;2.47;;;;;;;2.79;100.00;97518.72;5980760;29;20046;-70
2023/01/17 05:10:47;;;;;;;5.88;2.47;;;;;;;2.89;100.00;97534.97;5978846;29;20070;-72
2023/01/17 05:13:42;;;;;;;4.63;2.30;;;;;;;2.84;100.00;97526.84;5979252;29;20035;-72
2023/01/17 05:16:38;;;;;;;4.93;2.23;;;;;;;2.87;100.00;97542.19;5980473;29;20747;-73
2023/01/17 05:19:33;;;;;;;5.40;2.40;;;;;;;2.81;100.00;97532.41;5979972;28;20042;-70
2023/01/17 05:22:28;;;;;;;4.70;2.40;;;;;;;2.81;100.00;97558.56;5979522;29;20035;-72
2023/01/17 05:25:26;;;;;;;5.53;2.57;;;;;;;2.71;100.00;97555.38;5979538;28;20031;-73
2023/01/17 05:28:21;;;;;;;4.85;2.58;;;;;;;2.75;100.00;97559.28;5979769;29;20046;-72
2023/01/17 05:31:16;;;;;;;3.57;2.03;;;;;;;2.72;100.00;97575.31;5980019;29;20039;-72
2023/01/17 05:34:12;;;;;;;4.60;2.33;;;;;;;2.62;100.00;97559.03;5979704;29;20038;-71
2023/01/17 05:37:07;;;;;;;5.20;2.40;;;;;;;2.55;100.00;97561.56;5979744;29;20475;-71
2023/01/17 05:40:04;;;;;;;4.70;2.10;;;;;;;2.45;100.00;97571.41;5979953;29;20089;-73
2023/01/17 05:43:02;;;;;;;6.80;2.20;;;;;;;2.44;100.00;97577.63;5978685;28;20110;-72
2023/01/17 05:45:57;;;;;;;4.40;2.28;;;;;;;2.50;100.00;97602.28;5979642;28;20046;-70
2023/01/17 05:48:52;;;;;;;2.93;1.40;;;;;;;2.50;100.00;97612.75;5979776;29;20411;-71
2023/01/17 05:51:47;;;;;;;2.53;1.07;;;;;;;2.45;100.00;97608.00;5979486;29;20470;-71
2023/01/17 05:54:43;;;;;;;2.63;1.10;;;;;;;2.39;100.00;97616.56;5979299;29;20038;-71
2023/01/17 05:57:38;;;;;;;1.87;0.80;;;;;;;2.35;100.00;97629.16;5978759;29;20039;-70
2023/01/17 06:00:33;;;;;;;0.67;0.47;;;;;;;2.25;100.00;97630.34;5978745;29;20482;-71
2023/01/17 06:03:29;;;;;;;1.40;0.80;;;;;;;2.06;100.00;97621.09;5978854;29;20439;-71
2023/01/17 06:06:24;;;;;;;0.60;0.30;;;;;;;1.92;100.00;97649.72;5979246;29;20395;-72
2023/01/17 06:09:19;;;;;;;1.57;0.30;;;;;;;1.76;100.00;97667.06;5979296;29;20035;-70
2023/01/17 06:12:14;;;;;;;1.23;0.47;;;;;;;1.64;100.00;97689.25;5978609;29;20043;-71
2023/01/17 06:15:10;;;;;;;1.93;0.50;;;;;;;1.51;100.00;97693.34;5979113;29;20086;-71
2023/01/17 06:18:08;;;;;;;0.95;0.50;;;;;;;1.45;100.00;97720.09;5979568;29;20498;-70
2023/01/17 06:21:03;;;;;;;1.67;0.90;;;;;;;1.33;100.00;97724.03;5978791;29;20053;-70
2023/01/17 06:23:58;;;;;;;0.33;0.30;;;;;;;1.24;100.00;97727.59;5977960;29;20043;-70
2023/01/17 06:26:53;;;;;;;0.67;0.20;;;;;;;1.16;100.00;97734.44;5978600;29;20061;-72
2023/01/17 06:29:49;;;;;;;0.70;0.40;;;;;;;0.98;100.00;97738.94;5978782;29;20051;-71
2023/01/17 06:32:51;;;;;;;1.00;0.20;;;;;;;1.00;100.00;97768.31;5978420;29;20039;-71
2023/01/17 06:35:48;;;;;;;0.43;0.17;;;;;;;0.93;100.00;97774.31;5978633;28;20337;-69
2023/01/17 06:38:43;;;;;;;0.22;0.22;;;;;;;0.91;100.00;97776.25;5982352;29;20050;-71
2023/01/17 06:41:38;;;;;;;1.10;0.40;;;;;;;0.78;100.00;97763.69;5980586;28;20031;-71
2023/01/17 06:44:34;;;;;;;1.47;0.40;;;;;;;0.70;100.00;97770.66;5980403;28;20055;-70
2023/01/17 06:47:29;;;;;;;1.20;0.47;;;;;;;0.70;100.00;97792.31;5982564;29;20471;-69
2023/01/17 06:50:25;;;;;;;1.55;0.40;;;;;;;0.62;100.00;97778.44;5981463;28;20307;-70
2023/01/17 06:53:20;;;;;;;0.80;0.30;;;;;;;0.64;100.00;97782.50;5982805;29;20407;-70
2023/01/17 06:56:15;;;;;;;2.10;0.73;;;;;;;0.71;100.00;97787.94;5982804;29;20285;-72
2023/01/17 06:59:10;;;;;;;1.30;0.53;;;;;;;0.87;100.00;97809.66;5983187;29;20031;-72
2023/01/17 07:02:09;;;;;;;1.10;0.77;;;;;;;0.91;100.00;97804.94;5982126;28;20053;-71
2023/01/17 07:05:04;;;;;;;2.70;0.65;;;;;;;1.05;100.00;97822.63;5965724;29;20027;-72
2023/01/17 07:08:00;;;;;;;0.70;0.40;;;;;;;1.12;100.00;97834.88;5983457;29;20031;-71
2023/01/17 07:11:03;;;;;;;0.87;0.40;;;;;;;1.04;100.00;97832.22;5982968;29;20066;-72
2023/01/17 07:13:58;;;;;;;2.35;0.85;;;;;;;1.08;100.00;97828.34;5982318;29;20038;-70
2023/01/17 07:16:54;;;;;;;1.70;0.87;;;;;;;1.09;100.00;97852.63;5980775;29;20031;-71
2023/01/17 07:19:50;;;;;;;2.63;0.60;;;;;;;1.04;100.00;97865.31;5982483;29;20035;-70
2023/01/17 07:22:45;;;;;;;1.20;0.70;;;;;;;1.08;100.00;97869.28;5981916;29;20058;-71
2023/01/17 07:25:40;;;;;;;3.23;0.80;;;;;;;0.83;100.00;97852.69;5982683;29;20522;-72
2023/01/17 07:28:36;;;;;;;1.53;0.63;;;;;;;0.89;100.00;97870.31;5981175;28;20035;-71
2023/01/17 07:31:34;;;;;;;2.27;0.77;;;;;;;0.88;100.00;97876.50;5981948;29;20031;-72
2023/01/17 07:34:29;;;;;;;2.28;0.95;;;;;;;0.85;100.00;97879.41;5980961;29;20395;-72
2023/01/17 07:37:27;;;;;;;2.50;0.73;;;;;;;0.77;100.00;97861.13;5981642;28;20118;-71
2023/01/17 07:40:23;;;;;;;1.60;0.77;;;;;;;0.81;100.00;97867.69;5982175;29;20114;-72
2023/01/17 07:43:18;;;;;;;2.33;0.95;;;;;;;0.83;100.00;97875.34;5981140;29;20039;-71
2023/01/17 07:46:14;;;;;;;2.23;0.80;;;;;;;0.86;100.00;97869.81;5981572;28;20039;-71
2023/01/17 07:49:09;;;;;;;1.00;0.60;;;;;;;0.93;100.00;97873.41;5982102;28;20520;-71
2023/01/17 07:52:07;;;;;;;2.90;0.80;;;;;;;0.97;100.00;97874.75;5981235;29;20031;-72
2023/01/17 07:55:03;;;;;;;0.75;0.50;;;;;;;0.92;100.00;97862.19;5980295;29;20538;-72
2023/01/17 07:57:59;;;;;;;0.82;0.75;;;;;;;1.19;100.00;97902.91;5981075;29;20035;-72
2023/01/17 08:01:06;;;;;;;0.60;0.40;;;;;;;1.12;100.00;97886.22;5981149;29;20054;-72
2023/01/17 08:04:02;;;;;;;;;;;;;;;1.30;100.00;97904.41;5979987;29;20114;-71
2023/01/17 08:06:59;;;;;;;2.77;0.90;;;;;;;1.20;100.00;97900.13;5981175;29;20273;-72
2023/01/17 08:09:54;;;;;;;3.90;1.00;;;;;;;1.32;100.00;97910.28;5980131;29;20462;-70
2023/01/17 08:12:49;;;;;;;2.30;0.80;;;;;;;1.36;100.00;97909.03;5979833;29;20035;-73
2023/01/17 08:15:47;;;;;;;3.70;0.70;;;;;;;1.22;100.00;97899.16;5981369;29;20285;-73
2023/01/17 08:18:42;;;;;;;0.77;0.40;;;;;;;1.27;100.00;97923.00;5981593;28;20529;-72
2023/01/17 08:21:37;;;;;;;1.17;0.80;;;;;;;1.29;100.00;97931.47;5980972;29;20043;-73
2023/01/17 08:24:33;;;;;;;7.17;0.80;;;;;;;1.29;100.00;97923.66;5979960;29;20033;-73
2023/01/17 08:27:28;;;;;;;1.27;0.60;;;;;;;1.25;100.00;97935.41;5981382;29;20475;-72
2023/01/17 08:30:24;;;;;;;1.93;0.90;;;;;;;1.28;100.00;97942.91;5980055;29;20035;-74
2023/01/17 08:33:20;;;;;;;4.22;0.70;;;;;;;1.32;100.00;97949.44;5978040;29;20039;-72
2023/01/17 08:36:15;;;;;;;1.63;0.80;;;;;;;1.26;100.00;97940.44;5963826;29;20070;-73
2023/01/17 08:39:13;;;;;;;1.85;0.90;;;;;;;1.36;100.00;97953.41;5981623;29;20035;-71
2023/01/17 08:42:09;;;;;;;5.25;0.88;;;;;;;1.41;100.00;97958.97;5980506;29;20126;-71
2023/01/17 08:45:07;;;;;;;4.30;1.15;;;;;;;1.55;100.00;97966.22;5980663;28;20380;-72
2023/01/17 08:48:02;;;;;;;1.25;0.55;;;;;;;1.53;100.00;97962.91;5980643;29;20499;-70
2023/01/17 08:51:01;;;;;;;1.55;0.80;;;;;;;1.50;100.00;97964.03;5980038;29;20035;-72
2023/01/17 08:53:56;;;;;;;4.00;0.93;;;;;;;1.63;100.00;97971.47;5979889;29;20471;-71
2023/01/17 08:56:52;;;;;;;5.03;1.87;;;;;;;1.70;100.00;97977.69;5980790;29;20027;-71
2023/01/17 08:59:47;;;;;;;3.50;1.77;;;;;;;1.70;100.00;97988.13;5979641;28;20039;-70
2023/01/17 09:02:42;;;;;;;6.10;1.30;;;;;;;1.69;100.00;97995.13;5981593;28;20070;-70
2023/01/17 09:05:38;;;;;;;2.30;0.90;;;;;;;1.72;100.00;97987.00;5991709;28;20287;-70
2023/01/17 09:08:33;;;;;;;5.57;1.00;;;;;;;1.70;100.00;97986.34;5979777;29;20095;-70
2023/01/17 09:11:28;;;;;;;3.20;1.00;;;;;;;1.79;100.00;98011.50;5977739;29;20050;-69
2023/01/17 09:14:23;;;;;;;1.43;0.80;;;;;;;1.67;100.00;97988.44;5979216;29;20042;-72
2023/01/17 09:17:19;;;;;;;2.97;1.23;;;;;;;1.80;100.00;98014.94;5979413;29;20530;-72
2023/01/17 09:20:14;;;;;;;5.77;1.73;;;;;;;1.71;100.00;98002.81;5979073;29;20035;-69
2023/01/17 09:23:09;;;;;;;3.20;0.70;;;;;;;1.86;100.00;98016.91;5979192;29;20074;-72
2023/01/17 09:26:05;;;;;;;1.87;1.20;;;;;;;1.86;100.00;98021.31;5979935;29;20104;-69
2023/01/17 09:29:00;;;;;;;1.43;1.00;;;;;;;1.82;100.00;98007.78;5977192;29;20503;-72
2023/01/17 09:31:55;;;;;;;4.40;1.20;;;;;;;1.87;100.00;98018.56;5977897;29;20039;-70
2023/01/17 09:34:51;;;;;;;3.88;1.33;;;;;;;1.88;100.00;98027.19;5978665;28;20035;-69
2023/01/17 09:37:50;;;;;;;4.83;1.10;;;;;;;1.86;100.00;98032.59;5979402;29;20039;-72
2023/01/17 09:40:46;;;;;;;1.75;1.00;;;;;;;1.80;100.00;98038.44;5978711;29;20282;-72
2023/01/17 09:43:50;;;;;;;5.00;1.00;;;;;;;1.72;100.00;98039.22;5961135;28;20118;-70
2023/01/17 09:46:46;;;;;;;4.53;1.13;;;;;;;1.95;100.00;98036.88;5939178;29;20032;-70
2023/01/17 09:49:43;;;;;;;3.50;0.98;;;;;;;2.26;100.00;98040.56;5977951;29;20086;-70
2023/01/17 09:52:38;;;;;;;1.63;0.90;;;;;;;2.53;98.58;98056.97;5977296;29;20035;-70
2023/01/17 09:55:39;;;;;;;4.00;1.10;;;;;;;2.81;97.94;98055.69;5978683;28;20422;-72
2023/01/17 09:58:53;;;;;;;4.78;1.52;;;;;;;2.93;96.66;98057.00;5961172;29;20046;-72
2023/01/17 10:02:08;;;;;;;3.38;1.10;;;;;;;2.98;94.22;98052.09;5978105;29;20031;-70
2023/01/17 10:05:19;;;;;;;1.48;0.80;;;;;;;2.97;93.26;98071.38;5978961;29;20379;-72
2023/01/17 10:08:29;;;;;;;1.48;0.82;;;;;;;3.06;92.27;98069.59;5978664;29;20452;-71
2023/01/17 10:11:47;;;;;;;4.40;0.75;;;;;;;3.06;90.93;98070.41;5990812;28;20671;-72
2023/01/17 10:15:09;;;;;;;7.72;0.85;;;;;;;3.06;90.50;98059.13;5973507;28;20431;-70
2023/01/17 10:18:31;;;;;;;7.68;2.63;;;;;;;3.12;89.90;98051.44;5957055;29;20066;-72
2023/01/17 10:22:03;;;;;;;1.33;0.80;;;;;;;3.15;89.46;98064.22;5969085;28;20086;-74
2023/01/17 10:25:21;;;;;;;4.30;0.95;;;;;;;3.26;89.17;98058.59;5929696;29;20110;-71
2023/01/17 10:28:29;;;;;;;3.05;0.80;;;;;;;3.29;88.96;98042.56;5977919;29;20708;-72
2023/01/17 10:31:26;;;;;;;2.80;0.98;;;;;;;3.29;87.19;98070.56;5978458;29;20024;-71
2023/01/17 10:34:26;;;;;;;4.80;1.48;;;;;;;3.43;87.88;98065.47;5978079;29;20054;-71
2023/01/17 10:37:26;;;;;;;3.47;1.35;;;;;;;3.38;86.13;98065.16;5978456;29;20446;-70
2023/01/17 10:41:07;;;;;;;5.70;1.20;;;;;;;3.48;87.43;98073.63;5961363;29;20070;-71
2023/01/17 10:44:23;;;;;;;7.53;1.15;;;;;;;3.45;85.84;98068.72;5956118;28;20075;-70
2023/01/17 10:47:21;;;;;;;2.22;0.73;;;;;;;3.50;86.07;98063.84;5969870;28;20039;-72
2023/01/17 10:50:17;;;;;;;1.95;0.77;;;;;;;3.55;86.05;98055.47;5974541;28;20027;-72
2023/01/17 10:53:40;;;;;;;5.30;1.40;;;;;;;3.45;84.87;98076.59;5977281;29;20042;-71
2023/01/17 10:56:36;;;;;;;4.03;0.98;;;;;;;3.28;85.15;98069.75;5977023;29;20388;-71
2023/01/17 10:59:33;;;;;;;4.95;2.70;;;;;;;3.22;85.68;98067.78;5953229;29;20031;-72
2023/01/17 11:02:32;;;;;;;3.30;1.27;;;;;;;3.50;85.96;98063.84;5959863;29;20039;-70
2023/01/17 11:05:29;;;;;;;4.00;1.17;;;;;;;3.75;84.46;98061.16;5977941;29;20472;-70
2023/01/17 11:08:24;;;;;;;6.38;1.85;;;;;;;3.72;82.99;98078.03;5977608;29;20110;-71
2023/01/17 11:11:22;;;;;;;2.53;1.13;;;;;;;3.61;82.49;98071.31;5977553;29;20035;-70
2023/01/17 11:14:20;;;;;;;2.67;1.20;;;;;;;3.70;81.65;98079.97;5977022;29;20437;-70
2023/01/17 11:17:18;;;;;;;2.78;1.13;;;;;;;3.88;82.44;98061.44;5977528;28;20067;-71
2023/01/17 11:20:18;;;;;;;3.35;1.05;;;;;;;3.94;81.48;98071.25;5960283;29;20035;-70
2023/01/17 11:23:22;;;;;;;2.35;0.73;;;;;;;3.93;81.24;98080.91;5960723;29;20405;-71
2023/01/17 11:26:26;;;;;;;2.95;1.05;;;;;;;3.89;82.16;98084.84;5961368;29;20034;-70
2023/01/17 11:29:31;;;;;;;2.50;1.15;;;;;;;3.85;82.13;98082.72;5964501;29;20039;-70
2023/01/17 11:32:29;;;;;;;4.28;1.40;;;;;;;3.58;81.82;98091.81;5981479;29;20071;-71
2023/01/17 11:35:28;;;;;;;5.95;2.28;;;;;;;3.35;82.00;98088.22;5982419;29;20058;-71
2023/01/17 11:38:24;;;;;;;3.75;1.02;;;;;;;3.22;82.23;98095.75;5981780;28;20035;-71
2023/01/17 11:41:21;;;;;;;2.78;1.48;;;;;;;3.25;83.10;98088.41;5964947;29;20035;-70
2023/01/17 11:44:32;;;;;;;4.03;1.30;;;;;;;3.40;84.24;98104.25;5963817;28;20027;-70
2023/01/17 11:47:28;;;;;;;8.43;1.60;;;;;;;3.23;82.23;98087.75;5988898;28;20032;-72
2023/01/17 11:50:24;;;;;;;16.20;4.57;;;;;;;3.37;83.53;98091.53;5990657;28;20038;-71
2023/01/17 11:53:24;;;;;;;3.47;1.20;;;;;;;3.62;83.66;98108.81;5981081;29;20158;-71
2023/01/17 11:56:26;;;;;;;2.50;1.02;;;;;;;3.69;83.11;98114.22;5981849;29;20027;-71
2023/01/17 11:59:36;;;;;;;2.90;1.27;;;;;;;3.60;82.40;98113.41;5963797;29;20027;-69
2023/01/17 12:02:57;;;;;;;7.40;1.80;;;;;;;3.58;82.07;98112.78;5980333;29;20063;-71
2023/01/17 12:06:02;;;;;;;5.80;0.80;;;;;;;3.51;81.55;98114.41;5964149;29;20046;-71
2023/01/17 12:09:21;;;;;;;3.65;1.25;;;;;;;3.72;80.24;98116.50;5983037;28;20046;-70
2023/01/17 12:16:29;;;;;;;3.20;1.50;;;;;;;3.54;82.14;98117.50;5979699;29;20138;-70
2023/01/17 12:19:49;;;;;;;5.03;1.85;;;;;;;3.54;80.91;98107.03;5980955;29;20062;-70
2023/01/17 12:23:12;;;;;;;3.20;0.88;;;;;;;3.70;81.05;98102.75;5980282;29;20046;-70
2023/01/17 12:26:22;;;;;;;3.70;1.30;;;;;;;3.77;81.18;98095.88;5964564;29;20035;-70
2023/01/17 12:29:24;;;;;;;6.07;1.30;;;;;;;3.73;79.94;98110.25;5962384;29;20062;-71
2023/01/17 12:32:40;;;;;;;3.38;1.13;;;;;;;3.58;79.66;98116.22;5980082;29;20035;-71
2023/01/17 12:35:43;;;;;;;3.70;1.50;;;;;;;3.49;79.41;98105.91;5962887;29;20055;-71
2023/01/17 12:38:38;;;;;;;6.60;1.20;;;;;;;3.50;79.85;98110.16;5964349;29;20031;-70
2023/01/17 12:41:59;;;;;;;3.03;1.02;;;;;;;3.40;79.51;98114.72;5980493;29;20046;-70
2023/01/17 12:45:05;;;;;;;5.30;1.20;;;;;;;3.40;78.92;98119.97;5963122;29;20188;-71
2023/01/17 12:48:04;;;;;;;4.50;1.30;;;;;;;3.48;78.85;98104.25;5963384;29;20066;-71
2023/01/17 12:51:07;;;;;;;3.80;0.90;;;;;;;3.67;79.05;98109.13;5961766;29;20039;-71
2023/01/17 12:54:14;;;;;;;2.55;0.90;;;;;;;3.86;79.29;98116.63;5962515;29;20031;-71
2023/01/17 12:57:14;;;;;;;5.07;0.88;;;;;;;4.02;78.91;98121.03;5962698;29;20439;-70
2023/01/17 13:00:21;;;;;;;1.67;0.70;;;;;;;3.97;76.83;98118.06;5979032;28;20035;-71
2023/01/17 13:03:28;;;;;;;4.78;0.98;;;;;;;4.02;76.96;98115.78;5975176;28;20039;-69
2023/01/17 13:06:30;;;;;;;2.65;1.23;;;;;;;3.92;76.06;98120.38;5962902;29;20039;-70
2023/01/17 13:09:41;;;;;;;1.77;0.90;;;;;;;3.68;76.89;98117.81;5963977;28;20032;-70
2023/01/17 13:12:37;;;;;;;3.03;1.10;;;;;;;3.67;75.17;98116.19;5962668;29;20034;-71
2023/01/17 13:15:36;;;;;;;2.67;0.88;;;;;;;3.76;75.26;98136.13;5979037;29;20039;-70
2023/01/17 13:18:32;;;;;;;4.20;0.88;;;;;;;3.72;75.82;98135.69;5973203;29;20426;-70
2023/01/17 13:21:32;;;;;;;3.33;1.10;;;;;;;3.69;75.99;98140.44;5981433;28;20039;-71
2023/01/17 13:24:49;;;;;;;4.93;1.20;;;;;;;3.60;76.74;98127.34;5976027;28;20394;-71
2023/01/17 13:27:58;;;;;;;2.95;1.10;;;;;;;3.76;76.51;98152.69;5970948;29;20031;-69
2023/01/17 13:31:11;;;;;;;5.40;1.25;;;;;;;3.81;75.56;98152.19;5962901;29;20406;-70
2023/01/17 13:34:12;;;;;;;6.45;2.20;;;;;;;3.54;76.40;98148.94;5966470;29;20050;-71
2023/01/17 13:37:19;;;;;;;7.15;2.00;;;;;;;3.35;77.45;98133.56;5979631;29;20038;-70
2023/01/17 13:40:28;;;;;;;3.35;1.08;;;;;;;3.27;78.46;98144.03;5962095;29;20023;-69
2023/01/17 13:43:27;;;;;;;7.20;2.28;;;;;;;3.25;77.66;98151.25;5961898;29;20031;-71
2023/01/17 13:46:22;;;;;;;5.60;2.35;;;;;;;3.12;78.36;98143.06;5961843;29;20075;-71
2023/01/17 13:49:32;;;;;;;6.60;1.80;;;;;;;3.22;78.76;98159.44;5979437;29;20035;-72
2023/01/17 13:52:30;;;;;;;6.53;1.15;;;;;;;3.08;77.51;98157.44;5977009;29;20041;-70
2023/01/17 13:55:45;;;;;;;4.28;0.93;;;;;;;3.13;77.59;98175.28;5978904;29;20050;-71
2023/01/17 13:58:53;;;;;;;2.05;0.98;;;;;;;3.07;76.76;98187.25;5979117;29;20089;-71
2023/01/17 14:01:49;;;;;;;1.38;0.68;;;;;;;2.91;76.91;98177.53;5978508;29;20559;-70
2023/01/17 14:05:21;;;;;;;2.95;1.08;;;;;;;2.95;78.41;98196.38;5979145;29;20031;-71
2023/01/17 14:08:17;;;;;;;3.78;1.98;;;;;;;2.80;78.76;98193.53;5907465;29;20041;-72
2023/01/17 14:11:14;;;;;;;3.92;1.55;;;;;;;2.75;78.15;98194.97;5986523;28;20046;-72
2023/01/17 14:14:41;;;;;;;5.07;1.30;;;;;;;2.79;77.30;98202.38;5961467;29;20086;-70
2023/01/17 14:17:46;;;;;;;2.63;1.17;;;;;;;2.76;77.95;98204.47;5978463;29;20039;-71
2023/01/17 14:20:45;;;;;;;5.85;1.42;;;;;;;2.72;77.36;98198.75;5961411;29;20360;-72
2023/01/17 14:23:58;;;;;;;5.85;1.58;;;;;;;2.77;77.80;98219.22;5960910;29;20050;-71
2023/01/17 14:27:13;;;;;;;10.15;2.25;;;;;;;2.64;76.24;98222.25;5978476;29;20117;-71
2023/01/17 14:30:31;;;;;;;4.45;1.67;;;;;;;2.69;77.41;98212.13;5978902;29;20082;-71
2023/01/17 14:33:34;;;;;;;6.15;1.98;;;;;;;2.66;77.00;98222.13;5978358;29;20067;-70
2023/01/17 14:36:31;;;;;;;3.70;1.77;;;;;;;2.66;76.93;98222.13;5978297;29;20043;-71
2023/01/17 14:39:26;;;;;;;6.30;2.10;;;;;;;2.63;76.85;98219.81;5978234;29;20031;-70
2023/01/17 14:42:24;;;;;;;3.97;1.90;;;;;;;2.69;76.24;98211.34;5978511;29;20468;-72
2023/01/17 14:45:25;;;;;;;7.13;1.90;;;;;;;2.66;77.28;98217.72;5977849;28;20467;-70
2023/01/17 14:48:21;;;;;;;3.92;2.05;;;;;;;2.73;77.50;98217.88;5974274;29;20035;-69
2023/01/17 14:51:21;;;;;;;8.65;2.97;;;;;;;2.68;77.97;98225.38;5959620;29;20031;-71
2023/01/17 14:54:20;;;;;;;5.80;2.38;;;;;;;2.61;77.29;98216.53;5978079;29;20043;-72
2023/01/17 14:57:28;;;;;;;10.02;3.72;;;;;;;2.59;77.64;98221.09;5978148;28;20090;-71
2023/01/17 15:00:24;;;;;;;;;;;;;;;2.57;77.40;98230.91;5989498;28;20123;-72
2023/01/17 15:03:19;;;;;;;7.63;2.97;;;;;;;2.51;78.74;98231.50;5986617;28;19915;-71
2023/01/17 15:06:40;;;;;;;13.37;6.10;;;;;;;2.42;78.93;98219.41;5982663;29;20089;-72
2023/01/17 15:09:36;;;;;;;10.00;4.25;;;;;;;2.30;78.70;98227.50;5972720;28;20525;-70
2023/01/17 15:12:35;;;;;;;12.88;4.32;;;;;;;2.29;79.51;98232.88;5982664;28;20107;-72
2023/01/17 15:15:37;;;;;;;9.20;3.40;;;;;;;2.21;80.12;98236.25;5982879;29;20031;-71
2023/01/17 15:18:38;;;;;;;8.45;2.63;;;;;;;2.14;79.76;98235.25;5982262;29;20582;-72
2023/01/17 15:21:39;;;;;;;5.45;2.22;;;;;;;1.99;80.57;98231.56;5982933;29;20687;-72
2023/01/17 15:24:39;;;;;;;12.25;2.30;;;;;;;1.96;81.51;98231.06;5959060;29;20542;-72
2023/01/17 15:27:36;;;;;;;5.70;2.78;;;;;;;1.98;81.62;98234.31;5964930;29;20027;-71
2023/01/17 15:30:31;;;;;;;8.45;2.40;;;;;;;1.86;81.26;98246.00;5980576;29;20035;-72
2023/01/17 15:33:29;;;;;;;6.67;2.63;;;;;;;1.86;81.62;98251.22;5980050;29;20046;-71
2023/01/17 15:36:33;;;;;;;5.43;2.00;;;;;;;1.66;82.00;98250.56;5963276;29;20699;-71